sensor_id;sensor_type;location;lat;lon;timestamp;temperature;humidity
68922;DHT22;55959;51.244;5.724;2023-09-19T00:00:37;19.80;61.40
68922;DHT22;55959;51.244;5.724;2023-09-19T00:03:03;19.70;61.40
68922;DHT22;55959;51.244;5.724;2023-09-19T00:05:33;19.70;61.50
68922;DHT22;55959;51.244;5.724;2023-09-19T00:08:01;19.70;61.60
68922;DHT22;55959;51.244;5.724;2023-09-19T00:10:31;19.70;61.70
68922;DHT22;55959;51.244;5.724;2023-09-19T00:13:01;19.60;61.80
68922;DHT22;55959;51.244;5.724;2023-09-19T00:15:40;19.60;61.80
68922;DHT22;55959;51.244;5.724;2023-09-19T00:18:18;19.60;62.00
68922;DHT22;55959;51.244;5.724;2023-09-19T00:20:47;19.60;62.10
68922;DHT22;55959;51.244;5.724;2023-09-19T00:23:17;19.60;62.20
68922;DHT22;55959;51.244;5.724;2023-09-19T00:25:44;19.50;62.10
68922;DHT22;55959;51.244;5.724;2023-09-19T00:28:10;19.60;62.20
68922;DHT22;55959;51.244;5.724;2023-09-19T00:30:37;19.50;62.20
68922;DHT22;55959;51.244;5.724;2023-09-19T00:33:04;19.50;62.30
68922;DHT22;55959;51.244;5.724;2023-09-19T00:35:32;19.50;62.40
68922;DHT22;55959;51.244;5.724;2023-09-19T00:37:58;19.40;62.40
68922;DHT22;55959;51.244;5.724;2023-09-19T00:40:24;19.40;62.50
68922;DHT22;55959;51.244;5.724;2023-09-19T00:42:51;19.40;62.90
68922;DHT22;55959;51.244;5.724;2023-09-19T00:45:18;19.40;62.60
68922;DHT22;55959;51.244;5.724;2023-09-19T00:47:48;19.40;62.60
68922;DHT22;55959;51.244;5.724;2023-09-19T00:50:16;19.40;62.70
68922;DHT22;55959;51.244;5.724;2023-09-19T00:52:43;19.40;62.70
68922;DHT22;55959;51.244;5.724;2023-09-19T00:55:10;19.40;62.80
68922;DHT22;55959;51.244;5.724;2023-09-19T00:57:38;19.40;62.80
68922;DHT22;55959;51.244;5.724;2023-09-19T01:00:05;19.30;62.80
68922;DHT22;55959;51.244;5.724;2023-09-19T01:02:33;19.30;62.80
68922;DHT22;55959;51.244;5.724;2023-09-19T01:05:00;19.30;62.90
68922;DHT22;55959;51.244;5.724;2023-09-19T01:07:31;19.30;63.00
68922;DHT22;55959;51.244;5.724;2023-09-19T01:09:59;19.30;63.00
68922;DHT22;55959;51.244;5.724;2023-09-19T01:16:03;19.20;63.20
68922;DHT22;55959;51.244;5.724;2023-09-19T01:22:08;19.20;63.30
68922;DHT22;55959;51.244;5.724;2023-09-19T01:30:10;19.10;63.40
68922;DHT22;55959;51.244;5.724;2023-09-19T01:32:37;19.00;63.40
68922;DHT22;55959;51.244;5.724;2023-09-19T01:35:04;19.00;63.40
68922;DHT22;55959;51.244;5.724;2023-09-19T01:37:30;19.00;63.40
68922;DHT22;55959;51.244;5.724;2023-09-19T01:40:03;19.00;63.40
68922;DHT22;55959;51.244;5.724;2023-09-19T01:42:45;19.00;63.30
68922;DHT22;55959;51.244;5.724;2023-09-19T01:48:49;19.00;63.00
68922;DHT22;55959;51.244;5.724;2023-09-19T01:51:34;18.90;62.80
68922;DHT22;55959;51.244;5.724;2023-09-19T01:54:16;18.90;62.70
68922;DHT22;55959;51.244;5.724;2023-09-19T01:56:59;18.90;62.60
68922;DHT22;55959;51.244;5.724;2023-09-19T01:59:35;18.80;62.50
68922;DHT22;55959;51.244;5.724;2023-09-19T02:02:06;18.80;62.30
68922;DHT22;55959;51.244;5.724;2023-09-19T02:04:34;18.80;62.30
68922;DHT22;55959;51.244;5.724;2023-09-19T02:07:02;18.80;62.30
68922;DHT22;55959;51.244;5.724;2023-09-19T02:09:31;18.80;62.30
68922;DHT22;55959;51.244;5.724;2023-09-19T02:11:56;18.80;62.10
68922;DHT22;55959;51.244;5.724;2023-09-19T02:14:22;18.80;62.00
68922;DHT22;55959;51.244;5.724;2023-09-19T02:16:48;18.80;62.00
68922;DHT22;55959;51.244;5.724;2023-09-19T02:19:17;18.80;61.80
68922;DHT22;55959;51.244;5.724;2023-09-19T02:21:42;18.70;61.50
68922;DHT22;55959;51.244;5.724;2023-09-19T02:24:08;18.70;61.60
68922;DHT22;55959;51.244;5.724;2023-09-19T02:26:35;18.70;61.50
68922;DHT22;55959;51.244;5.724;2023-09-19T02:29:02;18.70;61.60
68922;DHT22;55959;51.244;5.724;2023-09-19T02:31:30;18.70;61.50
68922;DHT22;55959;51.244;5.724;2023-09-19T02:33:56;18.70;61.50
68922;DHT22;55959;51.244;5.724;2023-09-19T02:36:22;18.70;61.50
68922;DHT22;55959;51.244;5.724;2023-09-19T02:38:49;18.70;61.50
68922;DHT22;55959;51.244;5.724;2023-09-19T02:41:15;18.70;61.40
68922;DHT22;55959;51.244;5.724;2023-09-19T02:43:40;18.60;61.40
68922;DHT22;55959;51.244;5.724;2023-09-19T02:46:08;18.60;61.40
68922;DHT22;55959;51.244;5.724;2023-09-19T02:48:34;18.60;61.50
68922;DHT22;55959;51.244;5.724;2023-09-19T02:51:01;18.50;61.40
68922;DHT22;55959;51.244;5.724;2023-09-19T02:53:29;18.60;61.50
68922;DHT22;55959;51.244;5.724;2023-09-19T02:55:57;18.60;61.60
68922;DHT22;55959;51.244;5.724;2023-09-19T02:58:24;18.50;61.60
68922;DHT22;55959;51.244;5.724;2023-09-19T03:00:50;18.50;61.70
68922;DHT22;55959;51.244;5.724;2023-09-19T03:03:17;18.50;61.80
68922;DHT22;55959;51.244;5.724;2023-09-19T03:05:43;18.50;61.90
68922;DHT22;55959;51.244;5.724;2023-09-19T03:08:13;18.50;62.00
68922;DHT22;55959;51.244;5.724;2023-09-19T03:10:42;18.50;62.20
68922;DHT22;55959;51.244;5.724;2023-09-19T03:13:08;18.50;62.30
68922;DHT22;55959;51.244;5.724;2023-09-19T03:15:35;18.40;62.40
68922;DHT22;55959;51.244;5.724;2023-09-19T03:18:04;18.40;62.60
68922;DHT22;55959;51.244;5.724;2023-09-19T03:20:30;18.40;62.90
68922;DHT22;55959;51.244;5.724;2023-09-19T03:22:56;18.40;63.00
68922;DHT22;55959;51.244;5.724;2023-09-19T03:25:22;18.40;63.20
68922;DHT22;55959;51.244;5.724;2023-09-19T03:27:48;18.40;63.40
68922;DHT22;55959;51.244;5.724;2023-09-19T03:30:14;18.30;63.50
68922;DHT22;55959;51.244;5.724;2023-09-19T03:32:45;18.30;63.70
68922;DHT22;55959;51.244;5.724;2023-09-19T03:35:12;18.30;64.00
68922;DHT22;55959;51.244;5.724;2023-09-19T03:37:41;18.30;64.10
68922;DHT22;55959;51.244;5.724;2023-09-19T03:40:11;18.30;64.30
68922;DHT22;55959;51.244;5.724;2023-09-19T03:42:41;18.30;64.50
68922;DHT22;55959;51.244;5.724;2023-09-19T03:45:09;18.30;64.60
68922;DHT22;55959;51.244;5.724;2023-09-19T03:47:38;18.30;64.80
68922;DHT22;55959;51.244;5.724;2023-09-19T03:50:05;18.30;64.90
68922;DHT22;55959;51.244;5.724;2023-09-19T03:52:33;18.30;65.10
68922;DHT22;55959;51.244;5.724;2023-09-19T03:55:00;18.30;64.90
68922;DHT22;55959;51.244;5.724;2023-09-19T03:57:27;18.30;65.00
68922;DHT22;55959;51.244;5.724;2023-09-19T03:59:53;18.30;65.00
68922;DHT22;55959;51.244;5.724;2023-09-19T04:02:20;18.30;65.00
68922;DHT22;55959;51.244;5.724;2023-09-19T04:04:52;18.30;65.10
68922;DHT22;55959;51.244;5.724;2023-09-19T04:07:18;18.30;65.10
68922;DHT22;55959;51.244;5.724;2023-09-19T04:09:48;18.20;65.10
68922;DHT22;55959;51.244;5.724;2023-09-19T04:12:14;18.20;65.10
68922;DHT22;55959;51.244;5.724;2023-09-19T04:14:42;18.20;64.90
68922;DHT22;55959;51.244;5.724;2023-09-19T04:17:08;18.30;65.00
68922;DHT22;55959;51.244;5.724;2023-09-19T04:19:35;18.20;64.90
68922;DHT22;55959;51.244;5.724;2023-09-19T04:22:01;18.20;64.90
68922;DHT22;55959;51.244;5.724;2023-09-19T04:24:27;18.20;64.90
68922;DHT22;55959;51.244;5.724;2023-09-19T04:26:52;18.20;64.90
68922;DHT22;55959;51.244;5.724;2023-09-19T04:29:18;18.20;64.90
68922;DHT22;55959;51.244;5.724;2023-09-19T04:31:45;18.20;64.90
68922;DHT22;55959;51.244;5.724;2023-09-19T04:34:11;18.20;64.90
68922;DHT22;55959;51.244;5.724;2023-09-19T04:36:41;18.20;64.90
68922;DHT22;55959;51.244;5.724;2023-09-19T04:39:07;18.20;64.90
68922;DHT22;55959;51.244;5.724;2023-09-19T04:41:33;18.20;64.90
68922;DHT22;55959;51.244;5.724;2023-09-19T04:43:59;18.20;64.90
68922;DHT22;55959;51.244;5.724;2023-09-19T04:46:25;18.20;64.80
68922;DHT22;55959;51.244;5.724;2023-09-19T04:48:51;18.20;64.90
68922;DHT22;55959;51.244;5.724;2023-09-19T04:51:17;18.20;64.90
68922;DHT22;55959;51.244;5.724;2023-09-19T04:53:44;18.20;64.90
68922;DHT22;55959;51.244;5.724;2023-09-19T04:56:09;18.20;64.90
68922;DHT22;55959;51.244;5.724;2023-09-19T04:58:35;18.20;64.90
68922;DHT22;55959;51.244;5.724;2023-09-19T05:01:01;18.20;64.90
68922;DHT22;55959;51.244;5.724;2023-09-19T05:03:28;18.20;64.90
68922;DHT22;55959;51.244;5.724;2023-09-19T05:05:53;18.20;65.80
68922;DHT22;55959;51.244;5.724;2023-09-19T05:08:19;18.20;64.90
68922;DHT22;55959;51.244;5.724;2023-09-19T05:10:45;18.20;64.90
68922;DHT22;55959;51.244;5.724;2023-09-19T05:13:11;18.20;64.90
68922;DHT22;55959;51.244;5.724;2023-09-19T05:15:37;18.20;64.90
68922;DHT22;55959;51.244;5.724;2023-09-19T05:18:04;18.20;64.90
68922;DHT22;55959;51.244;5.724;2023-09-19T05:20:31;18.20;64.90
68922;DHT22;55959;51.244;5.724;2023-09-19T05:23:07;18.20;64.90
68922;DHT22;55959;51.244;5.724;2023-09-19T05:25:35;18.20;64.90
68922;DHT22;55959;51.244;5.724;2023-09-19T05:28:09;18.20;64.80
68922;DHT22;55959;51.244;5.724;2023-09-19T05:30:38;18.20;64.70
68922;DHT22;55959;51.244;5.724;2023-09-19T05:33:07;18.20;64.90
68922;DHT22;55959;51.244;5.724;2023-09-19T05:35:33;18.20;64.90
68922;DHT22;55959;51.244;5.724;2023-09-19T05:38:00;18.20;64.90
68922;DHT22;55959;51.244;5.724;2023-09-19T05:40:26;18.20;64.90
68922;DHT22;55959;51.244;5.724;2023-09-19T05:42:52;18.30;64.90
68922;DHT22;55959;51.244;5.724;2023-09-19T05:45:18;18.30;64.90
68922;DHT22;55959;51.244;5.724;2023-09-19T05:47:44;18.30;65.00
68922;DHT22;55959;51.244;5.724;2023-09-19T05:50:11;18.30;65.00
68922;DHT22;55959;51.244;5.724;2023-09-19T05:52:38;18.30;65.20
68922;DHT22;55959;51.244;5.724;2023-09-19T05:55:05;18.30;65.30
68922;DHT22;55959;51.244;5.724;2023-09-19T05:57:32;18.30;65.40
68922;DHT22;55959;51.244;5.724;2023-09-19T06:00:02;18.30;65.50
68922;DHT22;55959;51.244;5.724;2023-09-19T06:02:35;18.30;65.60
68922;DHT22;55959;51.244;5.724;2023-09-19T06:05:01;18.30;65.60
68922;DHT22;55959;51.244;5.724;2023-09-19T06:07:27;18.40;65.70
68922;DHT22;55959;51.244;5.724;2023-09-19T06:10:02;18.40;65.70
68922;DHT22;55959;51.244;5.724;2023-09-19T06:12:31;18.40;65.70
68922;DHT22;55959;51.244;5.724;2023-09-19T06:14:59;18.40;65.70
68922;DHT22;55959;51.244;5.724;2023-09-19T06:17:25;18.40;65.70
68922;DHT22;55959;51.244;5.724;2023-09-19T06:19:52;18.30;65.70
68922;DHT22;55959;51.244;5.724;2023-09-19T06:22:18;18.40;65.80
68922;DHT22;55959;51.244;5.724;2023-09-19T06:24:44;18.30;65.70
68922;DHT22;55959;51.244;5.724;2023-09-19T06:27:10;18.30;65.90
68922;DHT22;55959;51.244;5.724;2023-09-19T06:29:36;18.30;65.90
68922;DHT22;55959;51.244;5.724;2023-09-19T06:32:07;18.40;66.00
68922;DHT22;55959;51.244;5.724;2023-09-19T06:34:34;18.40;66.00
68922;DHT22;55959;51.244;5.724;2023-09-19T06:37:00;18.30;65.90
68922;DHT22;55959;51.244;5.724;2023-09-19T06:39:25;18.30;65.90
68922;DHT22;55959;51.244;5.724;2023-09-19T06:41:52;18.30;66.00
68922;DHT22;55959;51.244;5.724;2023-09-19T06:44:20;18.30;66.10
68922;DHT22;55959;51.244;5.724;2023-09-19T06:46:50;18.30;66.10
68922;DHT22;55959;51.244;5.724;2023-09-19T06:49:17;18.30;66.20
68922;DHT22;55959;51.244;5.724;2023-09-19T06:51:43;18.30;66.20
68922;DHT22;55959;51.244;5.724;2023-09-19T06:54:09;18.40;66.30
68922;DHT22;55959;51.244;5.724;2023-09-19T06:56:35;18.40;66.40
68922;DHT22;55959;51.244;5.724;2023-09-19T06:59:01;18.40;66.40
68922;DHT22;55959;51.244;5.724;2023-09-19T07:01:28;18.40;66.40
68922;DHT22;55959;51.244;5.724;2023-09-19T07:03:55;18.50;66.50
68922;DHT22;55959;51.244;5.724;2023-09-19T07:06:20;18.50;66.50
68922;DHT22;55959;51.244;5.724;2023-09-19T07:08:46;18.40;66.30
68922;DHT22;55959;51.244;5.724;2023-09-19T07:11:12;18.40;66.30
68922;DHT22;55959;51.244;5.724;2023-09-19T07:13:38;18.50;66.40
68922;DHT22;55959;51.244;5.724;2023-09-19T07:16:04;18.50;66.40
68922;DHT22;55959;51.244;5.724;2023-09-19T07:18:30;18.50;66.40
68922;DHT22;55959;51.244;5.724;2023-09-19T07:20:58;18.50;66.50
68922;DHT22;55959;51.244;5.724;2023-09-19T07:23:30;18.50;66.50
68922;DHT22;55959;51.244;5.724;2023-09-19T07:26:03;18.50;66.50
68922;DHT22;55959;51.244;5.724;2023-09-19T07:28:30;18.50;66.30
68922;DHT22;55959;51.244;5.724;2023-09-19T07:31:01;18.60;66.50
68922;DHT22;55959;51.244;5.724;2023-09-19T07:33:28;18.60;66.50
68922;DHT22;55959;51.244;5.724;2023-09-19T07:35:54;18.60;66.50
68922;DHT22;55959;51.244;5.724;2023-09-19T07:38:20;18.60;66.50
68922;DHT22;55959;51.244;5.724;2023-09-19T07:40:46;18.60;66.50
68922;DHT22;55959;51.244;5.724;2023-09-19T07:43:14;18.60;66.40
68922;DHT22;55959;51.244;5.724;2023-09-19T07:45:40;18.60;66.30
68922;DHT22;55959;51.244;5.724;2023-09-19T07:48:06;18.60;66.30
68922;DHT22;55959;51.244;5.724;2023-09-19T07:50:39;18.70;66.40
68922;DHT22;55959;51.244;5.724;2023-09-19T07:53:05;18.70;66.30
68922;DHT22;55959;51.244;5.724;2023-09-19T07:55:31;18.70;66.30
68922;DHT22;55959;51.244;5.724;2023-09-19T07:57:59;18.70;66.20
68922;DHT22;55959;51.244;5.724;2023-09-19T08:00:26;18.70;66.10
68922;DHT22;55959;51.244;5.724;2023-09-19T08:02:51;18.80;66.20
68922;DHT22;55959;51.244;5.724;2023-09-19T08:05:18;18.80;66.10
68922;DHT22;55959;51.244;5.724;2023-09-19T08:07:45;18.80;66.10
68922;DHT22;55959;51.244;5.724;2023-09-19T08:10:15;18.90;66.20
68922;DHT22;55959;51.244;5.724;2023-09-19T08:12:45;18.90;66.20
68922;DHT22;55959;51.244;5.724;2023-09-19T08:15:21;18.90;66.10
68922;DHT22;55959;51.244;5.724;2023-09-19T08:17:47;18.90;66.00
68922;DHT22;55959;51.244;5.724;2023-09-19T08:20:14;19.00;65.90
68922;DHT22;55959;51.244;5.724;2023-09-19T08:22:47;19.00;65.80
68922;DHT22;55959;51.244;5.724;2023-09-19T08:25:15;19.00;65.80
68922;DHT22;55959;51.244;5.724;2023-09-19T08:27:45;19.00;65.60
68922;DHT22;55959;51.244;5.724;2023-09-19T08:30:23;19.10;65.50
68922;DHT22;55959;51.244;5.724;2023-09-19T08:32:52;19.10;65.40
68922;DHT22;55959;51.244;5.724;2023-09-19T08:35:23;19.20;65.60
68922;DHT22;55959;51.244;5.724;2023-09-19T08:37:49;19.20;65.50
68922;DHT22;55959;51.244;5.724;2023-09-19T08:40:16;19.20;65.50
68922;DHT22;55959;51.244;5.724;2023-09-19T08:42:52;19.30;66.30
68922;DHT22;55959;51.244;5.724;2023-09-19T08:45:20;19.30;65.40
68922;DHT22;55959;51.244;5.724;2023-09-19T08:50:47;19.40;65.30
68922;DHT22;55959;51.244;5.724;2023-09-19T08:53:20;19.40;65.20
68922;DHT22;55959;51.244;5.724;2023-09-19T08:55:58;19.40;65.60
68922;DHT22;55959;51.244;5.724;2023-09-19T08:58:31;19.40;64.90
68922;DHT22;55959;51.244;5.724;2023-09-19T09:01:01;19.50;64.80
68922;DHT22;55959;51.244;5.724;2023-09-19T09:03:33;19.50;64.80
68922;DHT22;55959;51.244;5.724;2023-09-19T09:06:00;19.50;64.60
68922;DHT22;55959;51.244;5.724;2023-09-19T09:08:27;19.60;64.80
68922;DHT22;55959;51.244;5.724;2023-09-19T09:10:56;19.60;64.60
68922;DHT22;55959;51.244;5.724;2023-09-19T09:13:23;19.70;64.50
68922;DHT22;55959;51.244;5.724;2023-09-19T09:15:51;19.70;64.40
68922;DHT22;55959;51.244;5.724;2023-09-19T09:18:19;19.70;64.10
68922;DHT22;55959;51.244;5.724;2023-09-19T09:20:45;19.80;64.20
68922;DHT22;55959;51.244;5.724;2023-09-19T09:23:12;19.80;64.00
68922;DHT22;55959;51.244;5.724;2023-09-19T09:28:27;19.90;63.90
68922;DHT22;55959;51.244;5.724;2023-09-19T09:30:54;19.90;63.80
68922;DHT22;55959;51.244;5.724;2023-09-19T09:33:21;19.90;63.40
68922;DHT22;55959;51.244;5.724;2023-09-19T09:35:56;20.00;63.60
68922;DHT22;55959;51.244;5.724;2023-09-19T09:38:27;20.00;63.40
68922;DHT22;55959;51.244;5.724;2023-09-19T09:41:09;20.10;63.20
68922;DHT22;55959;51.244;5.724;2023-09-19T09:43:41;20.10;62.80
68922;DHT22;55959;51.244;5.724;2023-09-19T09:51:58;20.20;62.20
68922;DHT22;55959;51.244;5.724;2023-09-19T09:54:27;20.20;62.20
68922;DHT22;55959;51.244;5.724;2023-09-19T09:57:00;20.20;62.30
68922;DHT22;55959;51.244;5.724;2023-09-19T09:59:53;20.30;62.00
68922;DHT22;55959;51.244;5.724;2023-09-19T10:02:30;20.30;61.90
68922;DHT22;55959;51.244;5.724;2023-09-19T10:05:32;20.30;61.70
68922;DHT22;55959;51.244;5.724;2023-09-19T10:08:12;20.30;61.50
68922;DHT22;55959;51.244;5.724;2023-09-19T10:10:39;20.40;61.50
68922;DHT22;55959;51.244;5.724;2023-09-19T10:13:13;20.40;61.60
68922;DHT22;55959;51.244;5.724;2023-09-19T10:15:42;20.40;61.60
68922;DHT22;55959;51.244;5.724;2023-09-19T10:18:20;20.50;61.40
68922;DHT22;55959;51.244;5.724;2023-09-19T10:20:47;20.50;61.20
68922;DHT22;55959;51.244;5.724;2023-09-19T10:23:21;20.50;61.00
68922;DHT22;55959;51.244;5.724;2023-09-19T10:25:53;20.60;61.20
68922;DHT22;55959;51.244;5.724;2023-09-19T10:28:20;20.60;60.70
68922;DHT22;55959;51.244;5.724;2023-09-19T10:30:53;20.60;60.40
68922;DHT22;55959;51.244;5.724;2023-09-19T10:33:21;20.70;60.20
68922;DHT22;55959;51.244;5.724;2023-09-19T10:35:51;20.70;60.20
68922;DHT22;55959;51.244;5.724;2023-09-19T10:38:27;20.70;60.10
68922;DHT22;55959;51.244;5.724;2023-09-19T10:40:55;20.80;60.00
68922;DHT22;55959;51.244;5.724;2023-09-19T10:43:32;20.80;59.90
68922;DHT22;55959;51.244;5.724;2023-09-19T10:46:05;20.80;59.90
68922;DHT22;55959;51.244;5.724;2023-09-19T10:48:33;20.90;59.80
68922;DHT22;55959;51.244;5.724;2023-09-19T10:51:16;20.90;59.50
68922;DHT22;55959;51.244;5.724;2023-09-19T10:56:23;21.00;59.10
68922;DHT22;55959;51.244;5.724;2023-09-19T10:59:11;21.00;59.10
68922;DHT22;55959;51.244;5.724;2023-09-19T11:04:32;21.10;59.10
68922;DHT22;55959;51.244;5.724;2023-09-19T11:14:55;21.20;58.20
68922;DHT22;55959;51.244;5.724;2023-09-19T11:30:31;21.50;57.30
68922;DHT22;55959;51.244;5.724;2023-09-19T11:36:07;21.60;57.00
68922;DHT22;55959;51.244;5.724;2023-09-19T11:49:19;21.80;56.20
68922;DHT22;55959;51.244;5.724;2023-09-19T11:51:55;21.90;56.10
68922;DHT22;55959;51.244;5.724;2023-09-19T11:54:21;22.00;56.30
68922;DHT22;55959;51.244;5.724;2023-09-19T11:56:54;22.00;56.30
68922;DHT22;55959;51.244;5.724;2023-09-19T11:59:23;22.10;56.10
68922;DHT22;55959;51.244;5.724;2023-09-19T12:01:54;22.20;56.10
68922;DHT22;55959;51.244;5.724;2023-09-19T12:04:40;22.20;56.10
68922;DHT22;55959;51.244;5.724;2023-09-19T12:07:15;22.30;55.90
68922;DHT22;55959;51.244;5.724;2023-09-19T12:09:42;22.30;55.90
68922;DHT22;55959;51.244;5.724;2023-09-19T12:12:19;22.40;55.70
68922;DHT22;55959;51.244;5.724;2023-09-19T12:14:49;22.40;55.50
68922;DHT22;55959;51.244;5.724;2023-09-19T12:17:16;22.50;55.20
68922;DHT22;55959;51.244;5.724;2023-09-19T12:19:55;22.50;55.20
68922;DHT22;55959;51.244;5.724;2023-09-19T12:22:21;22.60;55.20
68922;DHT22;55959;51.244;5.724;2023-09-19T12:24:47;22.60;55.10
68922;DHT22;55959;51.244;5.724;2023-09-19T12:27:14;22.70;55.00
68922;DHT22;55959;51.244;5.724;2023-09-19T12:29:48;22.70;54.70
68922;DHT22;55959;51.244;5.724;2023-09-19T12:32:14;22.80;54.80
68922;DHT22;55959;51.244;5.724;2023-09-19T12:34:42;22.80;54.70
68922;DHT22;55959;51.244;5.724;2023-09-19T12:37:16;22.80;54.40
68922;DHT22;55959;51.244;5.724;2023-09-19T12:39:53;22.80;54.20
68922;DHT22;55959;51.244;5.724;2023-09-19T12:42:24;22.90;54.20
68922;DHT22;55959;51.244;5.724;2023-09-19T12:45:00;22.90;54.10
68922;DHT22;55959;51.244;5.724;2023-09-19T12:47:27;22.90;53.90
68922;DHT22;55959;51.244;5.724;2023-09-19T12:50:15;22.90;53.80
68922;DHT22;55959;51.244;5.724;2023-09-19T12:52:46;22.90;53.80
68922;DHT22;55959;51.244;5.724;2023-09-19T12:55:28;22.90;53.80
68922;DHT22;55959;51.244;5.724;2023-09-19T12:58:11;23.00;53.80
68922;DHT22;55959;51.244;5.724;2023-09-19T13:03:26;23.00;53.80
68922;DHT22;55959;51.244;5.724;2023-09-19T13:06:03;23.00;53.70
68922;DHT22;55959;51.244;5.724;2023-09-19T13:11:13;23.00;53.70
68922;DHT22;55959;51.244;5.724;2023-09-19T13:13:44;23.00;53.90
68922;DHT22;55959;51.244;5.724;2023-09-19T13:16:14;23.10;54.10
68922;DHT22;55959;51.244;5.724;2023-09-19T13:18:46;23.10;53.90
68922;DHT22;55959;51.244;5.724;2023-09-19T13:21:16;23.10;53.60
68922;DHT22;55959;51.244;5.724;2023-09-19T13:23:53;23.20;53.40
68922;DHT22;55959;51.244;5.724;2023-09-19T13:26:42;23.20;53.50
68922;DHT22;55959;51.244;5.724;2023-09-19T13:29:07;23.20;53.50
68922;DHT22;55959;51.244;5.724;2023-09-19T13:31:34;23.30;53.30
68922;DHT22;55959;51.244;5.724;2023-09-19T13:34:01;23.30;53.20
68922;DHT22;55959;51.244;5.724;2023-09-19T13:36:26;23.30;53.30
68922;DHT22;55959;51.244;5.724;2023-09-19T13:38:52;23.40;53.20
68922;DHT22;55959;51.244;5.724;2023-09-19T13:41:18;23.40;53.10
68922;DHT22;55959;51.244;5.724;2023-09-19T13:43:44;23.40;53.10
68922;DHT22;55959;51.244;5.724;2023-09-19T13:46:13;23.50;53.00
68922;DHT22;55959;51.244;5.724;2023-09-19T13:48:41;23.50;53.00
68922;DHT22;55959;51.244;5.724;2023-09-19T13:51:07;23.60;52.70
68922;DHT22;55959;51.244;5.724;2023-09-19T13:53:32;23.60;52.50
68922;DHT22;55959;51.244;5.724;2023-09-19T13:55:58;23.60;52.40
68922;DHT22;55959;51.244;5.724;2023-09-19T13:58:24;23.60;52.60
68922;DHT22;55959;51.244;5.724;2023-09-19T14:00:50;23.60;52.50
68922;DHT22;55959;51.244;5.724;2023-09-19T14:03:16;23.60;52.40
68922;DHT22;55959;51.244;5.724;2023-09-19T14:05:42;23.60;52.40
68922;DHT22;55959;51.244;5.724;2023-09-19T14:08:08;23.60;52.30
68922;DHT22;55959;51.244;5.724;2023-09-19T14:10:34;23.60;52.40
68922;DHT22;55959;51.244;5.724;2023-09-19T14:13:00;23.70;52.30
68922;DHT22;55959;51.244;5.724;2023-09-19T14:15:30;23.70;52.30
68922;DHT22;55959;51.244;5.724;2023-09-19T14:17:57;23.70;52.30
68922;DHT22;55959;51.244;5.724;2023-09-19T14:20:26;23.60;52.10
68922;DHT22;55959;51.244;5.724;2023-09-19T14:22:55;23.70;52.00
68922;DHT22;55959;51.244;5.724;2023-09-19T14:25:24;23.60;52.00
68922;DHT22;55959;51.244;5.724;2023-09-19T14:27:50;23.60;52.00
68922;DHT22;55959;51.244;5.724;2023-09-19T14:30:19;23.60;52.10
68922;DHT22;55959;51.244;5.724;2023-09-19T14:32:46;23.60;52.20
68922;DHT22;55959;51.244;5.724;2023-09-19T14:35:12;23.60;52.30
68922;DHT22;55959;51.244;5.724;2023-09-19T14:41:07;23.50;52.30
68922;DHT22;55959;51.244;5.724;2023-09-19T14:43:33;23.50;52.30
68922;DHT22;55959;51.244;5.724;2023-09-19T14:46:05;23.50;52.30
68922;DHT22;55959;51.244;5.724;2023-09-19T14:48:48;23.50;52.40
68922;DHT22;55959;51.244;5.724;2023-09-19T14:51:24;23.50;52.60
68922;DHT22;55959;51.244;5.724;2023-09-19T14:53:51;23.50;52.70
68922;DHT22;55959;51.244;5.724;2023-09-19T14:56:17;23.40;52.70
68922;DHT22;55959;51.244;5.724;2023-09-19T14:58:48;23.40;52.70
68922;DHT22;55959;51.244;5.724;2023-09-19T15:01:23;23.40;52.60
68922;DHT22;55959;51.244;5.724;2023-09-19T15:03:56;23.40;52.50
68922;DHT22;55959;51.244;5.724;2023-09-19T15:06:22;23.40;52.60
68922;DHT22;55959;51.244;5.724;2023-09-19T15:08:48;23.40;52.70
68922;DHT22;55959;51.244;5.724;2023-09-19T15:11:21;23.40;52.70
68922;DHT22;55959;51.244;5.724;2023-09-19T15:13:59;23.40;52.70
68922;DHT22;55959;51.244;5.724;2023-09-19T15:16:25;23.40;52.70
68922;DHT22;55959;51.244;5.724;2023-09-19T15:18:51;23.40;52.70
68922;DHT22;55959;51.244;5.724;2023-09-19T15:21:17;23.40;52.70
68922;DHT22;55959;51.244;5.724;2023-09-19T15:23:43;23.40;52.70
68922;DHT22;55959;51.244;5.724;2023-09-19T15:26:13;23.40;52.70
68922;DHT22;55959;51.244;5.724;2023-09-19T15:28:39;23.40;52.80
68922;DHT22;55959;51.244;5.724;2023-09-19T15:31:11;23.40;52.80
68922;DHT22;55959;51.244;5.724;2023-09-19T15:33:37;23.40;52.80
68922;DHT22;55959;51.244;5.724;2023-09-19T15:36:04;23.40;52.80
68922;DHT22;55959;51.244;5.724;2023-09-19T15:38:32;23.40;52.70
68922;DHT22;55959;51.244;5.724;2023-09-19T15:41:34;23.40;52.70
68922;DHT22;55959;51.244;5.724;2023-09-19T15:44:02;23.50;53.10
68922;DHT22;55959;51.244;5.724;2023-09-19T15:46:30;23.40;52.30
68922;DHT22;55959;51.244;5.724;2023-09-19T15:48:57;23.50;52.40
68922;DHT22;55959;51.244;5.724;2023-09-19T15:51:24;23.50;52.20
68922;DHT22;55959;51.244;5.724;2023-09-19T15:53:51;23.50;52.20
68922;DHT22;55959;51.244;5.724;2023-09-19T15:56:19;23.50;52.30
68922;DHT22;55959;51.244;5.724;2023-09-19T15:58:50;23.50;52.30
68922;DHT22;55959;51.244;5.724;2023-09-19T16:01:17;23.50;52.20
68922;DHT22;55959;51.244;5.724;2023-09-19T16:03:47;23.50;52.20
68922;DHT22;55959;51.244;5.724;2023-09-19T16:06:27;23.50;52.20
68922;DHT22;55959;51.244;5.724;2023-09-19T16:08:58;23.50;52.20
68922;DHT22;55959;51.244;5.724;2023-09-19T16:11:28;23.40;52.10
68922;DHT22;55959;51.244;5.724;2023-09-19T16:13:54;23.40;52.20
68922;DHT22;55959;51.244;5.724;2023-09-19T16:16:21;23.40;52.20
68922;DHT22;55959;51.244;5.724;2023-09-19T16:18:52;23.40;52.20
68922;DHT22;55959;51.244;5.724;2023-09-19T16:21:21;23.40;52.20
68922;DHT22;55959;51.244;5.724;2023-09-19T16:23:48;23.40;52.10
68922;DHT22;55959;51.244;5.724;2023-09-19T16:26:20;23.40;52.20
68922;DHT22;55959;51.244;5.724;2023-09-19T16:28:47;23.40;52.20
68922;DHT22;55959;51.244;5.724;2023-09-19T16:31:14;23.40;52.30
68922;DHT22;55959;51.244;5.724;2023-09-19T16:33:42;23.30;52.30
68922;DHT22;55959;51.244;5.724;2023-09-19T16:36:17;23.40;52.30
68922;DHT22;55959;51.244;5.724;2023-09-19T16:38:46;23.30;52.30
68922;DHT22;55959;51.244;5.724;2023-09-19T16:41:13;23.30;52.30
68922;DHT22;55959;51.244;5.724;2023-09-19T16:43:41;23.30;52.30
68922;DHT22;55959;51.244;5.724;2023-09-19T16:46:10;23.30;52.30
68922;DHT22;55959;51.244;5.724;2023-09-19T16:48:41;23.30;52.30
68922;DHT22;55959;51.244;5.724;2023-09-19T16:51:09;23.20;52.30
68922;DHT22;55959;51.244;5.724;2023-09-19T16:53:37;23.20;52.40
68922;DHT22;55959;51.244;5.724;2023-09-19T16:56:10;23.20;52.40
68922;DHT22;55959;51.244;5.724;2023-09-19T16:58:41;23.20;52.50